Time;durP1;ratioP1;P1;durP2;ratioP2;P2;SDS_P1;SDS_P2;PMS_P1;PMS_P2;Temp;Humidity;BMP_temperature;BMP_pressure;BME280_temperature;BME280_humidity;BME280_pressure;Samples;Min_cycle;Max_cycle;Signal;HPM_P1;HPM_P2
2023/01/26 00:00:24;;;;;;;64.25;33.53;;;;;;;;;;1043844;28;20107;-74
2023/01/26 00:00:55;;;;;;;76.70;34.13;;;;;;;;;;1044013;28;20021;-74
2023/01/26 00:01:28;;;;;;;70.32;32.38;;;;;;;;;;1043931;28;20116;-74
2023/01/26 00:01:58;;;;;;;62.20;31.95;;;;;;;;;;1043652;28;20017;-73
2023/01/26 00:02:29;;;;;;;64.63;31.05;;;;;;;;;;1043525;28;20051;-73
2023/01/26 00:02:59;;;;;;;60.15;29.50;;;;;;;;;;1043615;28;20552;-73
2023/01/26 00:03:30;;;;;;;69.18;30.67;;;;;;;;;;1043514;28;20473;-73
2023/01/26 00:04:00;;;;;;;53.13;29.33;;;;;;;;;;1043741;28;20016;-73
2023/01/26 00:04:31;;;;;;;59.13;27.83;;;;;;;;;;1042898;28;20365;-73
2023/01/26 00:05:01;;;;;;;56.92;27.00;;;;;;;;;;1043546;28;20021;-73
2023/01/26 00:05:35;;;;;;;65.07;24.05;;;;;;;;;;1043343;28;20024;-74
2023/01/26 00:06:06;;;;;;;50.63;25.95;;;;;;;;;;1043841;28;20021;-73
2023/01/26 00:06:37;;;;;;;52.33;28.05;;;;;;;;;;1043121;28;20033;-73
2023/01/26 00:07:07;;;;;;;52.67;28.92;;;;;;;;;;1043660;28;20449;-73
2023/01/26 00:07:41;;;;;;;65.72;28.40;;;;;;;;;;1042440;28;20024;-73
2023/01/26 00:08:12;;;;;;;58.80;29.55;;;;;;;;;;1044080;28;20462;-73
2023/01/26 00:08:44;;;;;;;55.50;28.55;;;;;;;;;;1047108;28;20511;-74
2023/01/26 00:09:14;;;;;;;75.75;27.85;;;;;;;;;;1043587;28;20024;-73
2023/01/26 00:09:45;;;;;;;56.25;27.00;;;;;;;;;;1043722;28;20024;-73
2023/01/26 00:10:15;;;;;;;58.40;28.25;;;;;;;;;;1045144;28;20024;-73
2023/01/26 00:10:49;;;;;;;62.25;26.85;;;;;;;;;;1043205;28;20116;-74
2023/01/26 00:11:23;;;;;;;68.45;30.08;;;;;;;;;;1043236;28;20028;-73
2023/01/26 00:11:53;;;;;;;57.90;27.45;;;;;;;;;;1038979;28;20021;-74
2023/01/26 00:12:24;;;;;;;52.38;26.25;;;;;;;;;;1040209;28;20374;-73
2023/01/26 00:12:55;;;;;;;60.58;28.05;;;;;;;;;;1043747;28;20062;-74
2023/01/26 00:13:26;;;;;;;56.50;28.33;;;;;;;;;;1043623;28;20452;-73
2023/01/26 00:13:57;;;;;;;53.38;28.23;;;;;;;;;;1043871;28;20052;-74
2023/01/26 00:14:48;;;;;;;54.17;26.85;;;;;;;;;;1043639;28;20035;-73
2023/01/26 00:15:18;;;;;;;49.08;25.08;;;;;;;;;;1043436;28;20017;-74
2023/01/26 00:15:49;;;;;;;46.40;25.88;;;;;;;;;;1043902;28;20104;-73
2023/01/26 00:16:19;;;;;;;55.75;23.33;;;;;;;;;;1043738;28;20021;-74
2023/01/26 00:16:50;;;;;;;57.22;28.63;;;;;;;;;;1043611;28;20021;-74
2023/01/26 00:17:26;;;;;;;59.90;28.23;;;;;;;;;;1043499;28;20021;-73
2023/01/26 00:17:57;;;;;;;50.55;26.27;;;;;;;;;;1043211;28;20551;-73
2023/01/26 00:18:28;;;;;;;62.78;29.10;;;;;;;;;;1043486;28;20029;-73
2023/01/26 00:19:00;;;;;;;61.88;30.20;;;;;;;;;;1043582;28;20033;-73
2023/01/26 00:19:30;;;;;;;66.85;30.92;;;;;;;;;;1039167;28;20473;-73
2023/01/26 00:20:00;;;;;;;53.45;29.08;;;;;;;;;;1037298;28;20025;-73
2023/01/26 00:20:31;;;;;;;57.60;30.25;;;;;;;;;;1037636;28;20021;-73
2023/01/26 00:21:02;;;;;;;57.65;29.20;;;;;;;;;;1041599;28;20027;-73
2023/01/26 00:21:32;;;;;;;69.25;29.15;;;;;;;;;;1045548;28;20107;-73
2023/01/26 00:22:03;;;;;;;59.40;29.55;;;;;;;;;;1044061;28;20112;-74
2023/01/26 00:22:33;;;;;;;52.75;26.83;;;;;;;;;;1043764;28;20542;-74
2023/01/26 00:23:04;;;;;;;65.03;31.23;;;;;;;;;;1043474;28;20017;-73
2023/01/26 00:23:34;;;;;;;46.15;24.20;;;;;;;;;;1043380;28;20385;-74
2023/01/26 00:24:05;;;;;;;71.22;31.63;;;;;;;;;;1043670;28;20044;-74
2023/01/26 00:24:36;;;;;;;59.25;29.00;;;;;;;;;;1043161;28;20027;-74
2023/01/26 00:25:06;;;;;;;60.42;26.42;;;;;;;;;;1047821;28;20031;-74
2023/01/26 00:25:39;;;;;;;72.07;27.50;;;;;;;;;;1043443;28;20031;-74
2023/01/26 00:26:12;;;;;;;51.60;26.90;;;;;;;;;;1042415;28;20408;-74
2023/01/26 00:26:42;;;;;;;57.65;28.17;;;;;;;;;;1043626;28;20023;-74
2023/01/26 00:27:13;;;;;;;52.78;26.40;;;;;;;;;;1043693;28;20392;-73
2023/01/26 00:27:43;;;;;;;59.78;27.98;;;;;;;;;;1044107;28;20418;-73
2023/01/26 00:28:14;;;;;;;68.50;29.35;;;;;;;;;;1043930;28;20461;-74
2023/01/26 00:28:44;;;;;;;59.35;26.48;;;;;;;;;;1043865;28;20534;-74
2023/01/26 00:29:15;;;;;;;60.88;27.05;;;;;;;;;;1043716;28;20064;-74
2023/01/26 00:29:45;;;;;;;49.22;24.90;;;;;;;;;;1043698;28;20094;-74
2023/01/26 00:30:16;;;;;;;54.90;29.35;;;;;;;;;;1043522;28;20025;-73
2023/01/26 00:30:47;;;;;;;51.75;29.77;;;;;;;;;;1043165;28;20112;-73
2023/01/26 00:31:18;;;;;;;59.63;28.75;;;;;;;;;;1043318;28;20032;-73
2023/01/26 00:31:49;;;;;;;54.33;27.60;;;;;;;;;;1043595;28;20051;-73
2023/01/26 00:32:19;;;;;;;60.25;29.55;;;;;;;;;;1043291;28;20017;-74
2023/01/26 00:32:50;;;;;;;57.97;25.45;;;;;;;;;;1043438;28;20028;-73
2023/01/26 00:33:20;;;;;;;60.00;29.48;;;;;;;;;;1043505;28;20024;-74
2023/01/26 00:33:52;;;;;;;58.67;27.05;;;;;;;;;;1043593;28;20121;-74
2023/01/26 00:34:23;;;;;;;67.82;31.65;;;;;;;;;;1042758;28;20447;-74
2023/01/26 00:34:53;;;;;;;73.38;34.60;;;;;;;;;;1042667;28;20025;-73
2023/01/26 00:35:24;;;;;;;73.88;31.30;;;;;;;;;;1043228;28;20055;-73
2023/01/26 00:35:54;;;;;;;64.03;33.08;;;;;;;;;;1039318;28;20021;-73
2023/01/26 00:36:26;;;;;;;67.35;35.90;;;;;;;;;;1039267;28;20483;-73
2023/01/26 00:36:56;;;;;;;74.32;35.50;;;;;;;;;;1039539;28;20025;-73
2023/01/26 00:37:27;;;;;;;79.35;32.40;;;;;;;;;;1043501;28;20408;-73
2023/01/26 00:37:57;;;;;;;75.97;36.15;;;;;;;;;;1043856;28;20060;-74
2023/01/26 00:38:28;;;;;;;71.28;33.45;;;;;;;;;;1043708;28;20120;-73
2023/01/26 00:39:01;;;;;;;71.07;35.15;;;;;;;;;;1044012;28;20603;-74
2023/01/26 00:39:32;;;;;;;74.85;33.72;;;;;;;;;;1043030;28;20021;-74
2023/01/26 00:40:02;;;;;;;74.00;34.25;;;;;;;;;;1042888;28;20115;-74
2023/01/26 00:40:33;;;;;;;68.55;35.97;;;;;;;;;;1043650;28;20013;-74
2023/01/26 00:41:03;;;;;;;66.63;33.60;;;;;;;;;;1043809;28;20035;-74
2023/01/26 00:42:23;;;;;;;69.68;31.08;;;;;;;;;;1043692;28;20024;-74
2023/01/26 00:42:54;;;;;;;73.65;33.85;;;;;;;;;;1042660;28;20017;-74
2023/01/26 00:43:24;;;;;;;74.13;35.35;;;;;;;;;;1043792;28;20020;-74
2023/01/26 00:43:55;;;;;;;77.88;33.45;;;;;;;;;;1043837;28;20029;-74
2023/01/26 00:44:25;;;;;;;74.90;35.13;;;;;;;;;;1043617;28;20078;-74
2023/01/26 00:44:56;;;;;;;79.05;38.70;;;;;;;;;;1043773;28;20071;-74
2023/01/26 00:45:26;;;;;;;76.53;38.08;;;;;;;;;;1043304;28;20553;-74
2023/01/26 00:45:57;;;;;;;76.88;34.85;;;;;;;;;;1043480;28;20029;-74
2023/01/26 00:46:28;;;;;;;76.13;34.70;;;;;;;;;;1043299;28;20186;-74
2023/01/26 00:46:58;;;;;;;77.95;34.95;;;;;;;;;;1039548;28;20556;-74
2023/01/26 00:47:29;;;;;;;83.38;35.88;;;;;;;;;;1043293;28;20032;-74
2023/01/26 00:47:59;;;;;;;65.97;33.13;;;;;;;;;;1043548;28;20021;-74
2023/01/26 00:48:30;;;;;;;72.45;34.60;;;;;;;;;;1043225;28;20017;-74
2023/01/26 00:49:00;;;;;;;75.57;37.88;;;;;;;;;;1043546;28;20493;-74
2023/01/26 00:49:31;;;;;;;86.28;41.55;;;;;;;;;;1042927;28;20111;-74
2023/01/26 00:50:01;;;;;;;80.50;40.33;;;;;;;;;;1038725;28;20112;-74
2023/01/26 00:50:32;;;;;;;72.85;39.65;;;;;;;;;;1042296;28;20556;-74
2023/01/26 00:51:03;;;;;;;79.28;40.05;;;;;;;;;;1042728;28;20079;-74
2023/01/26 00:51:33;;;;;;;90.88;41.30;;;;;;;;;;1043374;28;20021;-74
2023/01/26 00:52:04;;;;;;;89.22;40.58;;;;;;;;;;1043975;28;20871;-74
2023/01/26 00:52:35;;;;;;;88.80;41.28;;;;;;;;;;1043571;28;20020;-74
2023/01/26 00:53:05;;;;;;;89.65;42.53;;;;;;;;;;1043359;28;20017;-74
2023/01/26 00:53:36;;;;;;;92.05;40.63;;;;;;;;;;1043265;28;21154;-74
2023/01/26 00:54:06;;;;;;;90.38;41.35;;;;;;;;;;1043841;28;20020;-74
2023/01/26 00:54:37;;;;;;;99.47;42.10;;;;;;;;;;1043528;28;20376;-74
2023/01/26 00:55:07;;;;;;;90.80;40.55;;;;;;;;;;1042227;28;20032;-74
2023/01/26 00:55:38;;;;;;;88.82;40.40;;;;;;;;;;1043193;28;20079;-74
2023/01/26 00:56:08;;;;;;;94.57;43.35;;;;;;;;;;1043166;28;20040;-74
2023/01/26 00:56:39;;;;;;;102.22;44.38;;;;;;;;;;1043382;28;20630;-74
2023/01/26 00:57:10;;;;;;;110.22;44.50;;;;;;;;;;1043173;28;20037;-74
2023/01/26 00:57:40;;;;;;;99.20;42.58;;;;;;;;;;1043384;28;20091;-74
2023/01/26 00:58:11;;;;;;;103.65;44.15;;;;;;;;;;1043428;28;20431;-74
2023/01/26 00:58:43;;;;;;;93.10;43.63;;;;;;;;;;1043918;28;20462;-74
2023/01/26 00:59:14;;;;;;;95.47;42.70;;;;;;;;;;1043126;28;20013;-74
2023/01/26 00:59:44;;;;;;;84.68;41.95;;;;;;;;;;1039226;28;20060;-74
2023/01/26 01:00:16;;;;;;;87.45;38.47;;;;;;;;;;1039232;28;20039;-74
2023/01/26 01:00:46;;;;;;;79.53;39.45;;;;;;;;;;1038961;28;20053;-74
2023/01/26 01:01:17;;;;;;;93.40;43.00;;;;;;;;;;1043253;28;20017;-74
2023/01/26 01:01:47;;;;;;;100.43;40.35;;;;;;;;;;1043583;28;20052;-74
2023/01/26 01:02:18;;;;;;;89.28;42.65;;;;;;;;;;1043730;28;20087;-74
2023/01/26 01:02:49;;;;;;;101.05;44.13;;;;;;;;;;1043885;28;20029;-74
2023/01/26 01:03:19;;;;;;;103.80;43.90;;;;;;;;;;1043439;28;20033;-74
2023/01/26 01:03:51;;;;;;;99.45;42.88;;;;;;;;;;1043801;28;20025;-74
2023/01/26 01:04:21;;;;;;;97.00;42.58;;;;;;;;;;1043252;28;20083;-74
2023/01/26 01:04:52;;;;;;;109.75;44.63;;;;;;;;;;1043842;28;20577;-74
2023/01/26 01:05:22;;;;;;;110.78;43.63;;;;;;;;;;1039446;28;20511;-74
2023/01/26 01:05:53;;;;;;;90.53;40.28;;;;;;;;;;1039582;28;20027;-74
2023/01/26 01:06:23;;;;;;;87.70;41.78;;;;;;;;;;1043281;28;20452;-74
2023/01/26 01:06:54;;;;;;;85.30;42.03;;;;;;;;;;1043781;28;20105;-74
2023/01/26 01:07:25;;;;;;;96.13;41.47;;;;;;;;;;1047532;28;20031;-74
2023/01/26 01:07:55;;;;;;;93.00;43.55;;;;;;;;;;1043987;28;20029;-74
2023/01/26 01:08:26;;;;;;;83.80;38.45;;;;;;;;;;1043989;28;20017;-74
2023/01/26 01:08:57;;;;;;;97.32;43.63;;;;;;;;;;1044800;28;20077;-74
2023/01/26 01:09:27;;;;;;;97.93;43.63;;;;;;;;;;1043787;28;20019;-74
2023/01/26 01:09:59;;;;;;;104.18;43.97;;;;;;;;;;1044129;28;20024;-74
2023/01/26 01:10:29;;;;;;;99.65;43.08;;;;;;;;;;1042953;28;20021;-74
2023/01/26 01:11:04;;;;;;;98.60;43.42;;;;;;;;;;1043160;28;20031;-74
2023/01/26 01:11:34;;;;;;;96.35;44.45;;;;;;;;;;1043028;28;20021;-74
2023/01/26 01:12:05;;;;;;;101.25;44.72;;;;;;;;;;1043579;28;20476;-74
2023/01/26 01:12:36;;;;;;;120.72;53.80;;;;;;;;;;1043122;28;20043;-75
2023/01/26 01:13:06;;;;;;;120.43;52.80;;;;;;;;;;1043798;28;20032;-74
2023/01/26 01:13:37;;;;;;;128.45;58.17;;;;;;;;;;1043176;28;20021;-74
2023/01/26 01:14:09;;;;;;;139.05;59.17;;;;;;;;;;1042400;28;20486;-74
2023/01/26 01:14:39;;;;;;;133.15;55.78;;;;;;;;;;1044860;28;20056;-74
2023/01/26 01:15:10;;;;;;;166.32;58.50;;;;;;;;;;1043270;28;20071;-74
2023/01/26 01:15:40;;;;;;;144.13;61.78;;;;;;;;;;1043242;28;20717;-74
2023/01/26 01:16:12;;;;;;;163.25;63.63;;;;;;;;;;1043129;28;20079;-74
2023/01/26 01:16:44;;;;;;;156.65;65.10;;;;;;;;;;1043403;28;20074;-74
2023/01/26 01:17:14;;;;;;;173.25;69.75;;;;;;;;;;1043387;28;20032;-74
2023/01/26 01:17:45;;;;;;;155.77;64.20;;;;;;;;;;1047357;28;20021;-74
2023/01/26 01:18:16;;;;;;;179.95;67.20;;;;;;;;;;1046574;28;20032;-74
2023/01/26 01:18:46;;;;;;;166.05;69.35;;;;;;;;;;1043813;28;20481;-74
2023/01/26 01:19:17;;;;;;;197.50;75.35;;;;;;;;;;1043140;28;20071;-74
2023/01/26 01:19:48;;;;;;;177.52;75.25;;;;;;;;;;1043214;28;20024;-74
2023/01/26 01:20:18;;;;;;;176.15;70.78;;;;;;;;;;1043307;28;20028;-73
2023/01/26 01:20:49;;;;;;;183.07;77.03;;;;;;;;;;1043376;28;20111;-73
2023/01/26 01:21:20;;;;;;;180.25;74.97;;;;;;;;;;1043003;28;20051;-73
2023/01/26 01:21:50;;;;;;;186.32;77.15;;;;;;;;;;1043198;28;20180;-74
2023/01/26 01:22:21;;;;;;;170.10;70.03;;;;;;;;;;1043023;28;20025;-74
2023/01/26 01:22:51;;;;;;;191.05;78.43;;;;;;;;;;1039401;28;20021;-74
2023/01/26 01:23:22;;;;;;;179.88;71.40;;;;;;;;;;1044019;28;20480;-74
2023/01/26 01:23:53;;;;;;;165.13;73.18;;;;;;;;;;1044179;28;20024;-74
2023/01/26 01:24:23;;;;;;;194.60;74.78;;;;;;;;;;1042902;28;20029;-74
2023/01/26 01:24:53;;;;;;;216.43;84.80;;;;;;;;;;1039997;28;20025;-74
2023/01/26 01:25:24;;;;;;;219.90;85.03;;;;;;;;;;1043902;28;20044;-74
2023/01/26 01:25:58;;;;;;;196.85;85.32;;;;;;;;;;1044164;28;20031;-73
2023/01/26 01:26:29;;;;;;;212.48;85.20;;;;;;;;;;1044505;28;20021;-73
2023/01/26 01:26:59;;;;;;;205.98;81.60;;;;;;;;;;1048524;28;20078;-73
2023/01/26 01:27:30;;;;;;;211.55;79.63;;;;;;;;;;1048134;28;20059;-74
2023/01/26 01:28:00;;;;;;;206.02;84.20;;;;;;;;;;1049101;28;20046;-73
2023/01/26 01:28:32;;;;;;;193.05;83.35;;;;;;;;;;1045223;28;20040;-74
2023/01/26 01:29:03;;;;;;;212.35;86.38;;;;;;;;;;1044781;28;20531;-74
2023/01/26 01:29:33;;;;;;;194.23;83.53;;;;;;;;;;1043260;28;20050;-74
2023/01/26 01:30:06;;;;;;;195.82;82.13;;;;;;;;;;1041929;28;20032;-74
2023/01/26 01:30:37;;;;;;;192.30;81.75;;;;;;;;;;1043807;28;20071;-75
2023/01/26 01:31:11;;;;;;;189.45;79.88;;;;;;;;;;1045941;28;20025;-74
2023/01/26 01:31:42;;;;;;;177.52;74.30;;;;;;;;;;1046205;28;20477;-73
2023/01/26 01:32:13;;;;;;;180.98;79.53;;;;;;;;;;1046292;28;20111;-74
2023/01/26 01:32:43;;;;;;;179.05;79.90;;;;;;;;;;1046348;28;20039;-74
2023/01/26 01:33:14;;;;;;;178.05;77.00;;;;;;;;;;1043867;28;20036;-74
2023/01/26 01:33:44;;;;;;;200.75;80.05;;;;;;;;;;1043917;28;20038;-74
2023/01/26 01:34:15;;;;;;;184.18;75.55;;;;;;;;;;1043935;28;20093;-74
2023/01/26 01:34:46;;;;;;;187.23;72.88;;;;;;;;;;1045044;28;20001;-74
2023/01/26 01:35:16;;;;;;;179.75;71.47;;;;;;;;;;1042890;28;20032;-74
2023/01/26 01:35:57;;;;;;;177.95;74.13;;;;;;;;;;1043272;28;20466;-74
2023/01/26 01:36:28;;;;;;;;;;;;;;;;;;1047825;28;20020;-74
2023/01/26 01:36:58;;;;;;;153.75;64.88;;;;;;;;;;1043516;28;19943;-74
2023/01/26 01:37:29;;;;;;;172.75;69.47;;;;;;;;;;1042750;28;20051;-74
2023/01/26 01:37:59;;;;;;;159.27;69.38;;;;;;;;;;1042747;28;20024;-74
2023/01/26 01:38:30;;;;;;;178.57;69.68;;;;;;;;;;1042016;28;20025;-74
2023/01/26 01:39:00;;;;;;;159.70;70.05;;;;;;;;;;1042085;28;20470;-74
2023/01/26 01:39:31;;;;;;;169.30;70.60;;;;;;;;;;1040006;28;20112;-74
2023/01/26 01:40:01;;;;;;;172.20;68.40;;;;;;;;;;1037275;28;20063;-74
2023/01/26 01:40:32;;;;;;;159.07;67.57;;;;;;;;;;1034485;28;20029;-74
2023/01/26 01:41:03;;;;;;;142.70;61.15;;;;;;;;;;1032512;28;20394;-74
2023/01/26 01:41:33;;;;;;;158.15;62.75;;;;;;;;;;1037281;28;20032;-74
2023/01/26 01:42:04;;;;;;;155.90;66.22;;;;;;;;;;1040654;28;20455;-74
2023/01/26 01:42:34;;;;;;;154.70;63.25;;;;;;;;;;1040025;28;20022;-74
2023/01/26 01:43:09;;;;;;;159.80;67.00;;;;;;;;;;1039681;28;20029;-74
2023/01/26 01:43:39;;;;;;;155.40;63.03;;;;;;;;;;1039271;28;20021;-74
2023/01/26 01:44:11;;;;;;;164.95;64.95;;;;;;;;;;1039725;28;20887;-74
2023/01/26 01:44:42;;;;;;;165.23;63.72;;;;;;;;;;1044253;28;20021;-74
2023/01/26 01:45:24;;;;;;;150.25;65.35;;;;;;;;;;1047314;28;20025;-74
2023/01/26 01:45:55;;;;;;;161.18;68.07;;;;;;;;;;1047306;28;20480;-74
2023/01/26 01:46:31;;;;;;;166.40;70.72;;;;;;;;;;1042857;28;20025;-74
2023/01/26 01:47:06;;;;;;;161.70;66.78;;;;;;;;;;1043016;28;20625;-74
2023/01/26 01:47:37;;;;;;;158.55;69.88;;;;;;;;;;1043552;28;20033;-74
2023/01/26 01:48:12;;;;;;;160.38;68.68;;;;;;;;;;1043740;28;20017;-74
2023/01/26 01:48:47;;;;;;;173.60;71.45;;;;;;;;;;1043947;28;20079;-74
2023/01/26 01:49:19;;;;;;;146.40;62.47;;;;;;;;;;1042155;28;20459;-74
2023/01/26 01:49:51;;;;;;;154.45;66.95;;;;;;;;;;1043632;28;20029;-74
2023/01/26 01:50:23;;;;;;;183.82;69.80;;;;;;;;;;1042429;28;20033;-74
2023/01/26 01:50:55;;;;;;;169.98;67.85;;;;;;;;;;1042915;28;20028;-74
2023/01/26 01:51:44;;;;;;;149.07;69.05;;;;;;;;;;1043272;28;20043;-74
2023/01/26 01:52:17;;;;;;;144.52;65.60;;;;;;;;;;1045061;28;20456;-74
2023/01/26 01:52:47;;;;;;;162.55;70.60;;;;;;;;;;1040179;28;20115;-74
2023/01/26 01:53:23;;;;;;;152.90;68.40;;;;;;;;;;1042825;28;20024;-74
2023/01/26 01:53:55;;;;;;;153.57;70.45;;;;;;;;;;1044819;28;20055;-74
2023/01/26 01:54:29;;;;;;;144.35;65.50;;;;;;;;;;1043968;28;20032;-74
2023/01/26 01:55:05;;;;;;;142.10;64.38;;;;;;;;;;1042771;28;20136;-75
2023/01/26 01:55:35;;;;;;;155.57;66.78;;;;;;;;;;1043178;28;20025;-74
2023/01/26 01:56:10;;;;;;;159.70;63.72;;;;;;;;;;1042649;28;20509;-75
2023/01/26 01:56:42;;;;;;;145.77;64.72;;;;;;;;;;1043988;28;20028;-74
2023/01/26 01:57:14;;;;;;;145.70;66.15;;;;;;;;;;1042854;28;20024;-74
2023/01/26 01:57:50;;;;;;;134.68;62.70;;;;;;;;;;1043782;28;20021;-74
2023/01/26 01:58:21;;;;;;;116.85;56.78;;;;;;;;;;1043816;28;20017;-74
2023/01/26 01:58:54;;;;;;;125.20;58.83;;;;;;;;;;1043922;28;20029;-74
2023/01/26 01:59:25;;;;;;;148.48;62.72;;;;;;;;;;1043605;28;20021;-74
2023/01/26 02:00:06;;;;;;;122.45;58.70;;;;;;;;;;1043130;28;20025;-74
2023/01/26 02:00:37;;;;;;;130.65;54.70;;;;;;;;;;1043003;28;20036;-74
2023/01/26 02:01:08;;;;;;;133.00;59.78;;;;;;;;;;1041863;28;20044;-74
2023/01/26 02:01:39;;;;;;;151.73;62.72;;;;;;;;;;1041124;28;20033;-74
2023/01/26 02:02:10;;;;;;;136.27;60.38;;;;;;;;;;1043094;28;20606;-74
2023/01/26 02:02:42;;;;;;;129.38;60.25;;;;;;;;;;1043223;28;20028;-74
2023/01/26 02:03:19;;;;;;;126.78;60.78;;;;;;;;;;1041495;28;20132;-74
2023/01/26 02:03:52;;;;;;;131.35;58.38;;;;;;;;;;1043860;28;20472;-74
2023/01/26 02:04:23;;;;;;;127.85;56.35;;;;;;;;;;1043256;28;20074;-74
2023/01/26 02:04:56;;;;;;;127.35;57.75;;;;;;;;;;1041494;28;20109;-74
2023/01/26 02:05:31;;;;;;;124.65;58.05;;;;;;;;;;1043496;28;20432;-74
2023/01/26 02:06:04;;;;;;;122.00;59.03;;;;;;;;;;1042405;28;20052;-74
2023/01/26 02:06:38;;;;;;;124.55;59.08;;;;;;;;;;1040634;28;20525;-74
2023/01/26 02:07:09;;;;;;;113.95;54.75;;;;;;;;;;1043427;28;20059;-74
2023/01/26 02:07:40;;;;;;;131.32;53.97;;;;;;;;;;1043600;28;20032;-74
2023/01/26 02:08:12;;;;;;;121.75;58.60;;;;;;;;;;1043171;28;20477;-74
2023/01/26 02:08:45;;;;;;;130.95;57.08;;;;;;;;;;1043593;28;20029;-74
2023/01/26 02:10:18;;;;;;;109.15;51.83;;;;;;;;;;1043321;28;20111;-74
2023/01/26 02:10:49;;;;;;;126.60;52.20;;;;;;;;;;1043675;28;20032;-74
2023/01/26 02:11:26;;;;;;;122.13;51.90;;;;;;;;;;1042528;28;20057;-74
2023/01/26 02:11:57;;;;;;;123.97;52.35;;;;;;;;;;1041957;28;20504;-74
2023/01/26 02:12:29;;;;;;;113.95;52.97;;;;;;;;;;1043233;28;20091;-74
2023/01/26 02:13:00;;;;;;;120.63;51.78;;;;;;;;;;1043161;28;20025;-74
2023/01/26 02:13:32;;;;;;;106.63;50.50;;;;;;;;;;1043834;28;20024;-74
2023/01/26 02:14:04;;;;;;;113.63;53.42;;;;;;;;;;1042878;28;20029;-74
2023/01/26 02:14:34;;;;;;;121.68;51.65;;;;;;;;;;1043961;28;20482;-74
2023/01/26 02:15:05;;;;;;;116.07;52.15;;;;;;;;;;1042893;28;20021;-74
2023/01/26 02:15:37;;;;;;;120.07;53.13;;;;;;;;;;1043694;28;20029;-74
2023/01/26 02:16:07;;;;;;;125.18;54.90;;;;;;;;;;1042957;28;20506;-74
2023/01/26 02:16:40;;;;;;;109.50;52.80;;;;;;;;;;1043652;28;20046;-74
2023/01/26 02:17:11;;;;;;;127.13;52.55;;;;;;;;;;1041872;28;20068;-74
2023/01/26 02:17:41;;;;;;;129.38;56.85;;;;;;;;;;1043446;28;20025;-74
2023/01/26 02:18:12;;;;;;;122.05;56.20;;;;;;;;;;1043447;28;20029;-74
2023/01/26 02:18:44;;;;;;;111.78;54.13;;;;;;;;;;1042705;28;20025;-74
2023/01/26 02:19:21;;;;;;;116.28;55.60;;;;;;;;;;1042083;28;20029;-74
2023/01/26 02:20:04;;;;;;;123.28;56.72;;;;;;;;;;1042249;28;20017;-76
2023/01/26 02:20:56;;;;;;;117.85;51.65;;;;;;;;;;1043134;28;20071;-74
2023/01/26 02:21:27;;;;;;;120.15;48.72;;;;;;;;;;1043465;28;20090;-74
2023/01/26 02:21:59;;;;;;;117.28;52.60;;;;;;;;;;1041955;28;20025;-74
2023/01/26 02:22:33;;;;;;;112.82;52.22;;;;;;;;;;1041063;28;20141;-73
2023/01/26 02:23:03;;;;;;;113.78;50.33;;;;;;;;;;1042805;28;20063;-74
2023/01/26 02:23:49;;;;;;;117.43;52.78;;;;;;;;;;1043465;28;20432;-74
2023/01/26 02:24:25;;;;;;;110.07;46.28;;;;;;;;;;1042589;28;20017;-73
2023/01/26 02:24:58;;;;;;;125.85;51.00;;;;;;;;;;1042458;28;20116;-73
2023/01/26 02:25:39;;;;;;;120.10;51.03;;;;;;;;;;1043478;28;20035;-74
2023/01/26 02:26:20;;;;;;;113.03;52.13;;;;;;;;;;1043478;28;20056;-74
2023/01/26 02:26:51;;;;;;;109.13;48.30;;;;;;;;;;1043474;28;20499;-74
2023/01/26 02:27:22;;;;;;;112.40;52.47;;;;;;;;;;1043806;28;20021;-74
2023/01/26 02:27:52;;;;;;;102.40;49.05;;;;;;;;;;1043616;28;20020;-74
2023/01/26 02:28:26;;;;;;;112.82;51.88;;;;;;;;;;1043288;28;20017;-74
2023/01/26 02:28:58;;;;;;;125.25;51.95;;;;;;;;;;1043927;28;20029;-74
2023/01/26 02:29:28;;;;;;;115.20;51.08;;;;;;;;;;1039790;28;20083;-73
2023/01/26 02:29:59;;;;;;;101.82;49.17;;;;;;;;;;1038196;28;20136;-74
2023/01/26 02:30:30;;;;;;;111.47;50.42;;;;;;;;;;1037689;28;20024;-74
2023/01/26 02:31:01;;;;;;;116.03;51.05;;;;;;;;;;1039362;28;20033;-74
2023/01/26 02:31:31;;;;;;;110.60;52.67;;;;;;;;;;1043549;28;20032;-74
2023/01/26 02:32:02;;;;;;;112.53;52.15;;;;;;;;;;1041480;28;20033;-74
2023/01/26 02:32:32;;;;;;;100.07;49.85;;;;;;;;;;1045442;28;20024;-74
2023/01/26 02:33:03;;;;;;;109.65;52.45;;;;;;;;;;1042826;28;20064;-74
2023/01/26 02:33:33;;;;;;;112.72;51.58;;;;;;;;;;1039573;28;20071;-73
2023/01/26 02:34:04;;;;;;;109.80;53.33;;;;;;;;;;1043192;28;20393;-73
2023/01/26 02:34:34;;;;;;;114.93;52.88;;;;;;;;;;1042428;28;20021;-74
2023/01/26 02:35:05;;;;;;;114.88;51.85;;;;;;;;;;1042639;28;20082;-74
2023/01/26 02:35:36;;;;;;;119.47;52.53;;;;;;;;;;1043322;28;20403;-74
2023/01/26 02:36:06;;;;;;;125.30;51.55;;;;;;;;;;1043515;28;20493;-74
2023/01/26 02:36:37;;;;;;;131.73;51.53;;;;;;;;;;1044470;28;20021;-74
2023/01/26 02:37:12;;;;;;;118.28;48.50;;;;;;;;;;1042890;28;20032;-74
2023/01/26 02:37:42;;;;;;;112.00;50.92;;;;;;;;;;1043576;28;20174;-74
2023/01/26 02:38:13;;;;;;;119.07;53.13;;;;;;;;;;1041552;28;20115;-74
2023/01/26 02:38:48;;;;;;;112.55;52.33;;;;;;;;;;1043054;28;20048;-74
2023/01/26 02:39:37;;;;;;;112.72;50.10;;;;;;;;;;1042195;28;20025;-74
2023/01/26 02:40:14;;;;;;;97.70;47.13;;;;;;;;;;1042340;28;20032;-73
2023/01/26 02:40:52;;;;;;;92.45;47.95;;;;;;;;;;1039068;28;20490;-74
2023/01/26 02:43:01;;;;;;;115.45;53.70;;;;;;;;;;1043250;28;20013;-74
2023/01/26 02:43:32;;;;;;;102.32;52.33;;;;;;;;;;1043603;28;20021;-73
2023/01/26 02:44:03;;;;;;;110.45;49.20;;;;;;;;;;1043024;28;20036;-74
2023/01/26 02:44:34;;;;;;;111.72;51.40;;;;;;;;;;1043380;28;20079;-74
2023/01/26 02:45:05;;;;;;;117.40;53.97;;;;;;;;;;1042871;28;20020;-74
2023/01/26 02:45:37;;;;;;;109.25;50.25;;;;;;;;;;1042899;28;20033;-74
2023/01/26 02:46:08;;;;;;;109.13;48.70;;;;;;;;;;1042869;28;20025;-74
2023/01/26 02:46:38;;;;;;;106.57;47.30;;;;;;;;;;1044151;28;20025;-74
2023/01/26 02:47:13;;;;;;;117.90;52.85;;;;;;;;;;1042914;28;20392;-74
2023/01/26 02:47:44;;;;;;;99.97;46.83;;;;;;;;;;1042782;28;20032;-74
2023/01/26 02:49:45;;;;;;;112.18;51.25;;;;;;;;;;1041885;28;20452;-74
2023/01/26 02:49:54;;;;;;;109.43;49.63;;;;;;;;;;1043215;28;20133;-77
2023/01/26 02:50:25;;;;;;;114.88;50.40;;;;;;;;;;1043283;28;20071;-74
2023/01/26 02:50:55;;;;;;;104.65;49.60;;;;;;;;;;1043181;28;20056;-75
2023/01/26 02:51:26;;;;;;;115.45;50.58;;;;;;;;;;1044022;28;20029;-75
2023/01/26 02:51:56;;;;;;;124.00;52.65;;;;;;;;;;1042968;28;20059;-75
2023/01/26 02:52:29;;;;;;;114.32;52.08;;;;;;;;;;1043651;28;20024;-75
2023/01/26 02:53:00;;;;;;;119.63;50.63;;;;;;;;;;1042525;28;20392;-75
2023/01/26 02:53:31;;;;;;;115.60;54.67;;;;;;;;;;1041979;28;20590;-75
2023/01/26 02:54:02;;;;;;;127.80;55.78;;;;;;;;;;1043362;28;20493;-75
2023/01/26 02:55:21;;;;;;;112.75;53.97;;;;;;;;;;1043569;28;20021;-75
2023/01/26 02:55:52;;;;;;;109.38;52.55;;;;;;;;;;1043419;28;20028;-75
2023/01/26 02:56:22;;;;;;;123.25;54.60;;;;;;;;;;1041313;28;20072;-75
2023/01/26 02:56:53;;;;;;;107.90;52.08;;;;;;;;;;1039782;28;20030;-75
2023/01/26 02:57:23;;;;;;;121.80;54.38;;;;;;;;;;1041891;28;20033;-75
2023/01/26 02:57:56;;;;;;;119.32;56.22;;;;;;;;;;1041893;28;20017;-75
2023/01/26 02:58:26;;;;;;;116.90;54.95;;;;;;;;;;1039946;28;20512;-75
2023/01/26 02:58:57;;;;;;;98.97;48.25;;;;;;;;;;1041803;28;20029;-75
2023/01/26 02:59:27;;;;;;;99.80;49.53;;;;;;;;;;1043223;28;20025;-75
2023/01/26 02:59:58;;;;;;;98.85;49.03;;;;;;;;;;1042259;28;20020;-75
2023/01/26 03:00:29;;;;;;;100.15;49.67;;;;;;;;;;1040979;28;20025;-75
2023/01/26 03:01:00;;;;;;;97.35;44.72;;;;;;;;;;1042225;28;20021;-75
2023/01/26 03:01:31;;;;;;;99.00;46.42;;;;;;;;;;1043390;28;20020;-75
2023/01/26 03:02:02;;;;;;;101.47;46.10;;;;;;;;;;1042082;28;20029;-75
2023/01/26 03:02:32;;;;;;;90.03;45.10;;;;;;;;;;1042589;28;20025;-75
2023/01/26 03:03:07;;;;;;;78.80;40.15;;;;;;;;;;1038597;28;20060;-75
2023/01/26 03:03:44;;;;;;;85.28;42.30;;;;;;;;;;1039863;28;20036;-75
2023/01/26 03:04:14;;;;;;;71.72;34.80;;;;;;;;;;1042094;28;20024;-75
2023/01/26 03:04:45;;;;;;;101.05;44.75;;;;;;;;;;1043214;28;20032;-75
2023/01/26 03:05:16;;;;;;;98.38;49.10;;;;;;;;;;1042983;28;20029;-75
2023/01/26 03:05:47;;;;;;;99.05;49.33;;;;;;;;;;1043299;28;20039;-75
2023/01/26 03:06:17;;;;;;;111.85;53.55;;;;;;;;;;1042101;28;20025;-74
2023/01/26 03:06:48;;;;;;;122.57;49.60;;;;;;;;;;1042726;28;20530;-75
2023/01/26 03:07:18;;;;;;;109.65;50.08;;;;;;;;;;1043368;28;20523;-76
2023/01/26 03:07:49;;;;;;;111.57;49.95;;;;;;;;;;1042823;28;20017;-75
2023/01/26 03:08:20;;;;;;;122.38;52.10;;;;;;;;;;1042917;28;20589;-75
2023/01/26 03:08:50;;;;;;;108.10;50.83;;;;;;;;;;1038907;28;20021;-75